Lupin, Canada
Current Conditions -  °F | °C
As of 2:00 AM on Saturday 20 Dec 2014 (Local Time) from CYWE Reporting Station
Overcast Overcast  
Wind Chill: -4°   Ceiling: 400
Heat Index: 10°   Visibility: 9mi
Dew Point:   Wind: 12mph
Humidity: 92%   Direction: 70°ENE
Pressure: 29.58"   Gusts: NA
Location:  65.76°N, 111.25°W
Report Text: CYWE 200900Z AUTO 07010KT 9SM OVC004 M12/M13 A2958 RMK SLP052
Loading
Personal Weather Stations






























Interactive Weather Map New forecast layout! Learn more

10-Day Weather Forecast

Advertisements
Track Severe Weather on mobile